sensor_id;sensor_type;location;lat;lon;timestamp;P1;durP1;ratioP1;P2;durP2;ratioP2
43086;SDS011;28708;52.224;6.924;2023-04-03T00:00:28;6.40;;;1.60;;
43086;SDS011;28708;52.224;6.924;2023-04-03T00:02:54;7.77;;;2.20;;
43086;SDS011;28708;52.224;6.924;2023-04-03T00:05:20;7.10;;;2.20;;
43086;SDS011;28708;52.224;6.924;2023-04-03T00:07:46;7.17;;;2.10;;
43086;SDS011;28708;52.224;6.924;2023-04-03T00:10:11;9.57;;;2.20;;
43086;SDS011;28708;52.224;6.924;2023-04-03T00:12:38;10.97;;;2.60;;
43086;SDS011;28708;52.224;6.924;2023-04-03T00:15:04;6.20;;;2.23;;
43086;SDS011;28708;52.224;6.924;2023-04-03T00:17:30;8.97;;;2.43;;
43086;SDS011;28708;52.224;6.924;2023-04-03T00:19:56;8.17;;;2.67;;
43086;SDS011;28708;52.224;6.924;2023-04-03T00:22:22;5.57;;;1.80;;
43086;SDS011;28708;52.224;6.924;2023-04-03T00:24:47;7.27;;;2.30;;
43086;SDS011;28708;52.224;6.924;2023-04-03T00:27:13;8.73;;;2.33;;
43086;SDS011;28708;52.224;6.924;2023-04-03T00:29:40;12.47;;;2.27;;
43086;SDS011;28708;52.224;6.924;2023-04-03T00:32:06;10.03;;;2.17;;
43086;SDS011;28708;52.224;6.924;2023-04-03T00:34:32;8.93;;;2.07;;
43086;SDS011;28708;52.224;6.924;2023-04-03T00:36:57;8.67;;;2.47;;
43086;SDS011;28708;52.224;6.924;2023-04-03T00:39:24;8.70;;;2.40;;
43086;SDS011;28708;52.224;6.924;2023-04-03T00:41:49;8.70;;;2.13;;
43086;SDS011;28708;52.224;6.924;2023-04-03T00:44:21;9.20;;;2.43;;
43086;SDS011;28708;52.224;6.924;2023-04-03T00:46:52;12.23;;;2.53;;
43086;SDS011;28708;52.224;6.924;2023-04-03T00:49:18;8.17;;;2.57;;
43086;SDS011;28708;52.224;6.924;2023-04-03T00:51:44;9.03;;;2.40;;
43086;SDS011;28708;52.224;6.924;2023-04-03T00:54:10;9.23;;;2.03;;
43086;SDS011;28708;52.224;6.924;2023-04-03T00:56:37;11.87;;;2.30;;
43086;SDS011;28708;52.224;6.924;2023-04-03T00:59:08;10.50;;;2.70;;
43086;SDS011;28708;52.224;6.924;2023-04-03T01:01:38;8.73;;;2.77;;
43086;SDS011;28708;52.224;6.924;2023-04-03T01:04:04;6.87;;;2.20;;
43086;SDS011;28708;52.224;6.924;2023-04-03T01:06:32;9.93;;;2.63;;
43086;SDS011;28708;52.224;6.924;2023-04-03T01:09:06;8.00;;;2.60;;
43086;SDS011;28708;52.224;6.924;2023-04-03T01:11:32;9.17;;;2.77;;
43086;SDS011;28708;52.224;6.924;2023-04-03T01:13:59;6.27;;;2.30;;
43086;SDS011;28708;52.224;6.924;2023-04-03T01:16:26;5.93;;;2.10;;
43086;SDS011;28708;52.224;6.924;2023-04-03T01:21:28;8.77;;;2.53;;
43086;SDS011;28708;52.224;6.924;2023-04-03T01:24:23;9.13;;;2.53;;
43086;SDS011;28708;52.224;6.924;2023-04-03T01:26:57;7.90;;;2.57;;
43086;SDS011;28708;52.224;6.924;2023-04-03T01:29:23;8.00;;;2.43;;
43086;SDS011;28708;52.224;6.924;2023-04-03T01:31:50;10.60;;;2.80;;
43086;SDS011;28708;52.224;6.924;2023-04-03T01:34:20;7.80;;;2.50;;
43086;SDS011;28708;52.224;6.924;2023-04-03T01:36:46;11.67;;;2.70;;
43086;SDS011;28708;52.224;6.924;2023-04-03T01:39:12;11.37;;;2.90;;
43086;SDS011;28708;52.224;6.924;2023-04-03T01:41:38;10.93;;;2.57;;
43086;SDS011;28708;52.224;6.924;2023-04-03T01:44:11;8.30;;;2.40;;
43086;SDS011;28708;52.224;6.924;2023-04-03T01:46:37;8.37;;;3.03;;
43086;SDS011;28708;52.224;6.924;2023-04-03T01:49:03;11.17;;;2.93;;
43086;SDS011;28708;52.224;6.924;2023-04-03T01:51:29;6.40;;;2.00;;
43086;SDS011;28708;52.224;6.924;2023-04-03T01:53:55;6.73;;;2.20;;
43086;SDS011;28708;52.224;6.924;2023-04-03T01:56:21;7.43;;;2.13;;
43086;SDS011;28708;52.224;6.924;2023-04-03T01:58:48;9.97;;;3.00;;
43086;SDS011;28708;52.224;6.924;2023-04-03T02:01:15;9.37;;;2.60;;
43086;SDS011;28708;52.224;6.924;2023-04-03T02:03:41;9.73;;;2.90;;
43086;SDS011;28708;52.224;6.924;2023-04-03T02:06:06;11.77;;;2.80;;
43086;SDS011;28708;52.224;6.924;2023-04-03T02:08:32;8.63;;;2.47;;
43086;SDS011;28708;52.224;6.924;2023-04-03T02:10:58;7.73;;;2.30;;
43086;SDS011;28708;52.224;6.924;2023-04-03T02:13:24;12.27;;;2.60;;
43086;SDS011;28708;52.224;6.924;2023-04-03T02:15:49;9.40;;;2.17;;
43086;SDS011;28708;52.224;6.924;2023-04-03T02:18:16;7.60;;;2.30;;
43086;SDS011;28708;52.224;6.924;2023-04-03T02:20:42;7.27;;;2.10;;
43086;SDS011;28708;52.224;6.924;2023-04-03T02:23:07;8.70;;;2.37;;
43086;SDS011;28708;52.224;6.924;2023-04-03T02:25:33;9.33;;;2.07;;
43086;SDS011;28708;52.224;6.924;2023-04-03T02:27:59;9.70;;;2.53;;
43086;SDS011;28708;52.224;6.924;2023-04-03T02:30:25;9.33;;;2.50;;
43086;SDS011;28708;52.224;6.924;2023-04-03T02:32:51;8.30;;;2.30;;
43086;SDS011;28708;52.224;6.924;2023-04-03T02:35:19;8.53;;;2.03;;
43086;SDS011;28708;52.224;6.924;2023-04-03T02:37:46;9.95;;;2.22;;
43086;SDS011;28708;52.224;6.924;2023-04-03T02:40:12;7.03;;;2.33;;
43086;SDS011;28708;52.224;6.924;2023-04-03T02:42:38;8.97;;;2.13;;
43086;SDS011;28708;52.224;6.924;2023-04-03T02:45:04;6.83;;;2.20;;
43086;SDS011;28708;52.224;6.924;2023-04-03T02:47:31;8.43;;;2.47;;
43086;SDS011;28708;52.224;6.924;2023-04-03T02:49:57;11.87;;;2.10;;
43086;SDS011;28708;52.224;6.924;2023-04-03T02:52:23;6.43;;;2.63;;
43086;SDS011;28708;52.224;6.924;2023-04-03T02:54:50;15.17;;;2.33;;
43086;SDS011;28708;52.224;6.924;2023-04-03T02:57:16;10.30;;;2.63;;
43086;SDS011;28708;52.224;6.924;2023-04-03T02:59:42;5.60;;;2.10;;
43086;SDS011;28708;52.224;6.924;2023-04-03T03:02:10;8.37;;;2.10;;
43086;SDS011;28708;52.224;6.924;2023-04-03T03:04:36;6.97;;;2.40;;
43086;SDS011;28708;52.224;6.924;2023-04-03T03:07:02;8.50;;;2.80;;
43086;SDS011;28708;52.224;6.924;2023-04-03T03:09:28;8.97;;;2.50;;
43086;SDS011;28708;52.224;6.924;2023-04-03T03:11:54;8.07;;;2.00;;
43086;SDS011;28708;52.224;6.924;2023-04-03T03:14:21;9.30;;;2.60;;
43086;SDS011;28708;52.224;6.924;2023-04-03T03:16:47;9.50;;;2.23;;
43086;SDS011;28708;52.224;6.924;2023-04-03T03:19:12;14.10;;;2.60;;
43086;SDS011;28708;52.224;6.924;2023-04-03T03:21:38;13.83;;;2.80;;
43086;SDS011;28708;52.224;6.924;2023-04-03T03:24:04;9.63;;;2.17;;
43086;SDS011;28708;52.224;6.924;2023-04-03T03:26:31;8.23;;;2.33;;
43086;SDS011;28708;52.224;6.924;2023-04-03T03:28:57;7.13;;;2.33;;
43086;SDS011;28708;52.224;6.924;2023-04-03T03:31:23;10.70;;;2.67;;
43086;SDS011;28708;52.224;6.924;2023-04-03T03:33:48;6.50;;;2.27;;
43086;SDS011;28708;52.224;6.924;2023-04-03T03:36:14;6.23;;;2.00;;
43086;SDS011;28708;52.224;6.924;2023-04-03T03:38:40;7.87;;;2.30;;
43086;SDS011;28708;52.224;6.924;2023-04-03T03:41:06;8.40;;;2.27;;
43086;SDS011;28708;52.224;6.924;2023-04-03T03:43:33;6.83;;;2.47;;
43086;SDS011;28708;52.224;6.924;2023-04-03T03:45:59;5.13;;;1.67;;
43086;SDS011;28708;52.224;6.924;2023-04-03T03:48:26;11.10;;;2.07;;
43086;SDS011;28708;52.224;6.924;2023-04-03T03:50:52;8.40;;;2.17;;
43086;SDS011;28708;52.224;6.924;2023-04-03T03:53:21;9.77;;;2.72;;
43086;SDS011;28708;52.224;6.924;2023-04-03T03:55:50;8.10;;;2.20;;
43086;SDS011;28708;52.224;6.924;2023-04-03T03:58:19;10.00;;;2.57;;
43086;SDS011;28708;52.224;6.924;2023-04-03T04:00:44;7.70;;;2.17;;
43086;SDS011;28708;52.224;6.924;2023-04-03T04:03:10;6.07;;;2.40;;
43086;SDS011;28708;52.224;6.924;2023-04-03T04:05:36;7.33;;;2.27;;
43086;SDS011;28708;52.224;6.924;2023-04-03T04:08:02;8.70;;;2.40;;
43086;SDS011;28708;52.224;6.924;2023-04-03T04:10:27;11.83;;;2.40;;
43086;SDS011;28708;52.224;6.924;2023-04-03T04:12:54;10.03;;;2.60;;
43086;SDS011;28708;52.224;6.924;2023-04-03T04:15:23;11.03;;;2.20;;
43086;SDS011;28708;52.224;6.924;2023-04-03T04:17:51;6.30;;;2.40;;
43086;SDS011;28708;52.224;6.924;2023-04-03T04:20:16;7.03;;;2.50;;
43086;SDS011;28708;52.224;6.924;2023-04-03T04:22:42;16.57;;;2.40;;
43086;SDS011;28708;52.224;6.924;2023-04-03T04:25:08;8.23;;;1.97;;
43086;SDS011;28708;52.224;6.924;2023-04-03T04:27:36;12.97;;;2.80;;
43086;SDS011;28708;52.224;6.924;2023-04-03T04:30:03;12.27;;;2.57;;
43086;SDS011;28708;52.224;6.924;2023-04-03T04:32:30;10.30;;;2.80;;
43086;SDS011;28708;52.224;6.924;2023-04-03T04:34:56;6.27;;;2.63;;
43086;SDS011;28708;52.224;6.924;2023-04-03T04:37:22;12.23;;;2.37;;
43086;SDS011;28708;52.224;6.924;2023-04-03T04:39:48;11.00;;;2.53;;
43086;SDS011;28708;52.224;6.924;2023-04-03T04:42:13;9.80;;;2.60;;
43086;SDS011;28708;52.224;6.924;2023-04-03T04:44:40;8.40;;;2.20;;
43086;SDS011;28708;52.224;6.924;2023-04-03T04:47:07;11.13;;;2.77;;
43086;SDS011;28708;52.224;6.924;2023-04-03T04:49:32;10.93;;;2.80;;
43086;SDS011;28708;52.224;6.924;2023-04-03T04:51:58;14.33;;;3.20;;
43086;SDS011;28708;52.224;6.924;2023-04-03T04:54:28;9.77;;;2.70;;
43086;SDS011;28708;52.224;6.924;2023-04-03T04:56:54;12.13;;;2.93;;
43086;SDS011;28708;52.224;6.924;2023-04-03T04:59:20;8.27;;;2.20;;
43086;SDS011;28708;52.224;6.924;2023-04-03T05:01:46;11.57;;;3.83;;
43086;SDS011;28708;52.224;6.924;2023-04-03T05:04:15;11.63;;;3.00;;
43086;SDS011;28708;52.224;6.924;2023-04-03T05:06:42;9.23;;;2.20;;
43086;SDS011;28708;52.224;6.924;2023-04-03T05:09:13;8.33;;;2.60;;
43086;SDS011;28708;52.224;6.924;2023-04-03T05:11:41;7.93;;;2.50;;
43086;SDS011;28708;52.224;6.924;2023-04-03T05:14:08;14.63;;;2.70;;
43086;SDS011;28708;52.224;6.924;2023-04-03T05:16:35;6.27;;;2.20;;
43086;SDS011;28708;52.224;6.924;2023-04-03T05:19:01;7.50;;;2.47;;
43086;SDS011;28708;52.224;6.924;2023-04-03T05:21:27;13.97;;;3.30;;
43086;SDS011;28708;52.224;6.924;2023-04-03T05:26:24;11.40;;;3.73;;
43086;SDS011;28708;52.224;6.924;2023-04-03T05:28:52;11.90;;;3.57;;
43086;SDS011;28708;52.224;6.924;2023-04-03T05:31:19;8.97;;;3.30;;
43086;SDS011;28708;52.224;6.924;2023-04-03T05:33:45;10.03;;;2.13;;
43086;SDS011;28708;52.224;6.924;2023-04-03T05:36:15;18.67;;;5.40;;
43086;SDS011;28708;52.224;6.924;2023-04-03T05:38:44;6.93;;;2.43;;
43086;SDS011;28708;52.224;6.924;2023-04-03T05:41:10;12.07;;;5.67;;
43086;SDS011;28708;52.224;6.924;2023-04-03T05:43:36;10.63;;;2.87;;
43086;SDS011;28708;52.224;6.924;2023-04-03T05:46:08;9.83;;;3.47;;
43086;SDS011;28708;52.224;6.924;2023-04-03T05:48:39;8.60;;;2.80;;
43086;SDS011;28708;52.224;6.924;2023-04-03T05:51:06;9.73;;;3.17;;
43086;SDS011;28708;52.224;6.924;2023-04-03T05:53:35;15.00;;;4.10;;
43086;SDS011;28708;52.224;6.924;2023-04-03T05:58:35;12.43;;;3.13;;
43086;SDS011;28708;52.224;6.924;2023-04-03T06:01:01;26.87;;;13.53;;
43086;SDS011;28708;52.224;6.924;2023-04-03T06:03:27;14.30;;;4.93;;
43086;SDS011;28708;52.224;6.924;2023-04-03T06:05:53;11.00;;;3.97;;
43086;SDS011;28708;52.224;6.924;2023-04-03T06:08:19;10.70;;;2.90;;
43086;SDS011;28708;52.224;6.924;2023-04-03T06:10:45;9.30;;;3.53;;
43086;SDS011;28708;52.224;6.924;2023-04-03T06:13:10;10.93;;;4.07;;
43086;SDS011;28708;52.224;6.924;2023-04-03T06:15:37;12.43;;;2.40;;
43086;SDS011;28708;52.224;6.924;2023-04-03T06:18:03;13.43;;;5.03;;
43086;SDS011;28708;52.224;6.924;2023-04-03T06:20:29;12.13;;;3.57;;
43086;SDS011;28708;52.224;6.924;2023-04-03T06:22:56;9.80;;;2.97;;
43086;SDS011;28708;52.224;6.924;2023-04-03T06:25:22;13.43;;;3.27;;
43086;SDS011;28708;52.224;6.924;2023-04-03T06:27:48;25.80;;;10.27;;
43086;SDS011;28708;52.224;6.924;2023-04-03T06:30:13;14.40;;;3.23;;
43086;SDS011;28708;52.224;6.924;2023-04-03T06:32:39;7.47;;;2.50;;
43086;SDS011;28708;52.224;6.924;2023-04-03T06:35:05;10.00;;;2.60;;
43086;SDS011;28708;52.224;6.924;2023-04-03T06:37:31;8.17;;;3.00;;
43086;SDS011;28708;52.224;6.924;2023-04-03T06:39:58;11.63;;;2.70;;
43086;SDS011;28708;52.224;6.924;2023-04-03T06:42:25;7.77;;;2.37;;
43086;SDS011;28708;52.224;6.924;2023-04-03T06:45:00;11.37;;;2.40;;
43086;SDS011;28708;52.224;6.924;2023-04-03T06:47:25;6.90;;;2.23;;
43086;SDS011;28708;52.224;6.924;2023-04-03T06:49:51;8.70;;;2.33;;
43086;SDS011;28708;52.224;6.924;2023-04-03T06:52:17;11.57;;;2.20;;
43086;SDS011;28708;52.224;6.924;2023-04-03T06:54:42;12.53;;;5.80;;
43086;SDS011;28708;52.224;6.924;2023-04-03T06:57:08;11.03;;;2.27;;
43086;SDS011;28708;52.224;6.924;2023-04-03T06:59:34;5.40;;;1.57;;
43086;SDS011;28708;52.224;6.924;2023-04-03T07:02:00;7.90;;;2.17;;
43086;SDS011;28708;52.224;6.924;2023-04-03T07:04:26;8.30;;;2.70;;
43086;SDS011;28708;52.224;6.924;2023-04-03T07:06:52;9.17;;;2.60;;
43086;SDS011;28708;52.224;6.924;2023-04-03T07:09:17;11.93;;;3.13;;
43086;SDS011;28708;52.224;6.924;2023-04-03T07:11:43;11.00;;;2.40;;
43086;SDS011;28708;52.224;6.924;2023-04-03T07:14:09;5.43;;;1.93;;
43086;SDS011;28708;52.224;6.924;2023-04-03T07:16:35;5.50;;;1.87;;
43086;SDS011;28708;52.224;6.924;2023-04-03T07:19:01;10.23;;;2.73;;
43086;SDS011;28708;52.224;6.924;2023-04-03T07:21:27;6.47;;;2.00;;
43086;SDS011;28708;52.224;6.924;2023-04-03T07:23:54;6.83;;;1.83;;
43086;SDS011;28708;52.224;6.924;2023-04-03T07:26:20;10.77;;;2.50;;
43086;SDS011;28708;52.224;6.924;2023-04-03T07:28:47;6.07;;;1.87;;
43086;SDS011;28708;52.224;6.924;2023-04-03T07:31:14;7.77;;;2.00;;
43086;SDS011;28708;52.224;6.924;2023-04-03T07:33:41;8.97;;;1.87;;
43086;SDS011;28708;52.224;6.924;2023-04-03T07:36:08;6.37;;;2.00;;
43086;SDS011;28708;52.224;6.924;2023-04-03T07:38:35;9.67;;;2.30;;
43086;SDS011;28708;52.224;6.924;2023-04-03T07:41:02;6.73;;;2.10;;
43086;SDS011;28708;52.224;6.924;2023-04-03T07:43:28;5.80;;;1.77;;
43086;SDS011;28708;52.224;6.924;2023-04-03T07:45:54;6.73;;;1.90;;
43086;SDS011;28708;52.224;6.924;2023-04-03T07:48:23;6.60;;;2.00;;
43086;SDS011;28708;52.224;6.924;2023-04-03T07:50:50;6.30;;;1.60;;
43086;SDS011;28708;52.224;6.924;2023-04-03T07:53:17;9.10;;;2.10;;
43086;SDS011;28708;52.224;6.924;2023-04-03T07:55:45;4.63;;;1.00;;
43086;SDS011;28708;52.224;6.924;2023-04-03T07:58:13;5.20;;;1.40;;
43086;SDS011;28708;52.224;6.924;2023-04-03T08:00:42;4.60;;;1.40;;
43086;SDS011;28708;52.224;6.924;2023-04-03T08:03:09;6.47;;;1.37;;
43086;SDS011;28708;52.224;6.924;2023-04-03T08:05:40;5.70;;;2.20;;
43086;SDS011;28708;52.224;6.924;2023-04-03T08:08:06;4.13;;;1.53;;
43086;SDS011;28708;52.224;6.924;2023-04-03T08:10:33;5.23;;;1.40;;
43086;SDS011;28708;52.224;6.924;2023-04-03T08:13:00;7.27;;;1.70;;
43086;SDS011;28708;52.224;6.924;2023-04-03T08:15:26;4.47;;;1.53;;
43086;SDS011;28708;52.224;6.924;2023-04-03T08:17:52;9.43;;;1.43;;
43086;SDS011;28708;52.224;6.924;2023-04-03T08:20:18;5.37;;;1.10;;
43086;SDS011;28708;52.224;6.924;2023-04-03T08:22:44;6.03;;;1.20;;
43086;SDS011;28708;52.224;6.924;2023-04-03T08:25:09;7.40;;;1.17;;
43086;SDS011;28708;52.224;6.924;2023-04-03T08:27:35;4.63;;;1.50;;
43086;SDS011;28708;52.224;6.924;2023-04-03T08:30:01;5.23;;;1.63;;
43086;SDS011;28708;52.224;6.924;2023-04-03T08:32:37;5.67;;;1.40;;
43086;SDS011;28708;52.224;6.924;2023-04-03T08:35:03;5.83;;;1.23;;
43086;SDS011;28708;52.224;6.924;2023-04-03T08:37:29;5.57;;;1.10;;
43086;SDS011;28708;52.224;6.924;2023-04-03T08:39:55;5.53;;;0.90;;
43086;SDS011;28708;52.224;6.924;2023-04-03T08:45:08;5.37;;;1.10;;
43086;SDS011;28708;52.224;6.924;2023-04-03T08:47:40;4.55;;;1.35;;
43086;SDS011;28708;52.224;6.924;2023-04-03T08:50:19;3.87;;;1.17;;
43086;SDS011;28708;52.224;6.924;2023-04-03T08:52:55;2.80;;;0.80;;
43086;SDS011;28708;52.224;6.924;2023-04-03T08:55:29;2.40;;;0.70;;
43086;SDS011;28708;52.224;6.924;2023-04-03T08:58:05;3.50;;;0.73;;
43086;SDS011;28708;52.224;6.924;2023-04-03T09:03:20;2.50;;;0.80;;
43086;SDS011;28708;52.224;6.924;2023-04-03T09:05:48;4.37;;;1.57;;
43086;SDS011;28708;52.224;6.924;2023-04-03T09:11:12;2.33;;;0.60;;
43086;SDS011;28708;52.224;6.924;2023-04-03T09:13:57;3.20;;;0.70;;
43086;SDS011;28708;52.224;6.924;2023-04-03T09:22:00;1.90;;;0.70;;
43086;SDS011;28708;52.224;6.924;2023-04-03T09:24:37;3.37;;;0.80;;
43086;SDS011;28708;52.224;6.924;2023-04-03T09:27:04;2.10;;;0.83;;
43086;SDS011;28708;52.224;6.924;2023-04-03T09:29:33;3.05;;;0.82;;
43086;SDS011;28708;52.224;6.924;2023-04-03T09:32:12;3.17;;;1.07;;
43086;SDS011;28708;52.224;6.924;2023-04-03T09:34:56;4.03;;;1.00;;
43086;SDS011;28708;52.224;6.924;2023-04-03T09:37:33;3.27;;;0.70;;
43086;SDS011;28708;52.224;6.924;2023-04-03T09:40:01;1.60;;;0.60;;
43086;SDS011;28708;52.224;6.924;2023-04-03T09:42:27;1.60;;;0.70;;
43086;SDS011;28708;52.224;6.924;2023-04-03T09:45:01;3.63;;;1.00;;
43086;SDS011;28708;52.224;6.924;2023-04-03T09:47:30;1.83;;;0.60;;
43086;SDS011;28708;52.224;6.924;2023-04-03T09:52:47;2.07;;;0.60;;
43086;SDS011;28708;52.224;6.924;2023-04-03T09:57:52;2.20;;;0.70;;
43086;SDS011;28708;52.224;6.924;2023-04-03T10:02:49;2.07;;;0.70;;
43086;SDS011;28708;52.224;6.924;2023-04-03T10:07:52;3.13;;;0.80;;
43086;SDS011;28708;52.224;6.924;2023-04-03T10:10:35;3.80;;;1.27;;
43086;SDS011;28708;52.224;6.924;2023-04-03T10:13:12;3.37;;;1.00;;
43086;SDS011;28708;52.224;6.924;2023-04-03T10:15:41;2.33;;;0.77;;
43086;SDS011;28708;52.224;6.924;2023-04-03T10:26:45;11.20;;;7.05;;
43086;SDS011;28708;52.224;6.924;2023-04-03T10:34:48;13.63;;;8.10;;
43086;SDS011;28708;52.224;6.924;2023-04-03T10:37:23;9.37;;;6.33;;
43086;SDS011;28708;52.224;6.924;2023-04-03T10:45:28;3.53;;;1.10;;
43086;SDS011;28708;52.224;6.924;2023-04-03T10:48:04;3.97;;;1.40;;
43086;SDS011;28708;52.224;6.924;2023-04-03T10:53:39;3.03;;;0.80;;
43086;SDS011;28708;52.224;6.924;2023-04-03T10:56:31;2.50;;;0.83;;
43086;SDS011;28708;52.224;6.924;2023-04-03T11:01:50;7.27;;;3.47;;
43086;SDS011;28708;52.224;6.924;2023-04-03T11:04:19;4.27;;;1.20;;
43086;SDS011;28708;52.224;6.924;2023-04-03T11:06:48;4.60;;;1.60;;
43086;SDS011;28708;52.224;6.924;2023-04-03T11:12:42;3.57;;;1.50;;
43086;SDS011;28708;52.224;6.924;2023-04-03T11:14:46;2.58;;;1.13;;
43086;SDS011;28708;52.224;6.924;2023-04-03T11:17:19;2.78;;;0.75;;
43086;SDS011;28708;52.224;6.924;2023-04-03T11:22:36;5.70;;;2.27;;
43086;SDS011;28708;52.224;6.924;2023-04-03T11:25:19;5.13;;;1.10;;
43086;SDS011;28708;52.224;6.924;2023-04-03T11:27:49;2.53;;;0.90;;
43086;SDS011;28708;52.224;6.924;2023-04-03T11:30:39;3.60;;;1.33;;
43086;SDS011;28708;52.224;6.924;2023-04-03T11:36:24;3.87;;;1.03;;
43086;SDS011;28708;52.224;6.924;2023-04-03T11:38:55;3.27;;;1.30;;
43086;SDS011;28708;52.224;6.924;2023-04-03T11:41:25;3.23;;;1.13;;
43086;SDS011;28708;52.224;6.924;2023-04-03T11:44:00;4.45;;;1.02;;
43086;SDS011;28708;52.224;6.924;2023-04-03T11:57:43;3.53;;;1.60;;
43086;SDS011;28708;52.224;6.924;2023-04-03T12:08:28;6.37;;;1.53;;
43086;SDS011;28708;52.224;6.924;2023-04-03T12:18:54;4.40;;;1.30;;
43086;SDS011;28708;52.224;6.924;2023-04-03T12:21:21;6.97;;;1.70;;
43086;SDS011;28708;52.224;6.924;2023-04-03T12:24:23;4.67;;;1.57;;
43086;SDS011;28708;52.224;6.924;2023-04-03T12:26:51;4.13;;;1.20;;
43086;SDS011;28708;52.224;6.924;2023-04-03T12:29:35;6.07;;;1.50;;
43086;SDS011;28708;52.224;6.924;2023-04-03T12:43:11;4.20;;;1.50;;
43086;SDS011;28708;52.224;6.924;2023-04-03T12:48:37;4.37;;;1.30;;
43086;SDS011;28708;52.224;6.924;2023-04-03T12:51:10;5.07;;;1.13;;
43086;SDS011;28708;52.224;6.924;2023-04-03T12:54:00;6.13;;;1.40;;
43086;SDS011;28708;52.224;6.924;2023-04-03T12:56:29;6.63;;;1.37;;
43086;SDS011;28708;52.224;6.924;2023-04-03T12:59:12;5.17;;;1.23;;
43086;SDS011;28708;52.224;6.924;2023-04-03T13:01:44;3.83;;;1.13;;
43086;SDS011;28708;52.224;6.924;2023-04-03T13:04:21;4.10;;;1.30;;
43086;SDS011;28708;52.224;6.924;2023-04-03T13:06:48;3.33;;;1.10;;
43086;SDS011;28708;52.224;6.924;2023-04-03T13:09:18;4.40;;;1.27;;
43086;SDS011;28708;52.224;6.924;2023-04-03T13:11:51;5.63;;;1.10;;
43086;SDS011;28708;52.224;6.924;2023-04-03T13:14:27;4.03;;;1.10;;
43086;SDS011;28708;52.224;6.924;2023-04-03T13:17:03;5.90;;;1.33;;
43086;SDS011;28708;52.224;6.924;2023-04-03T13:19:35;4.87;;;1.27;;
43086;SDS011;28708;52.224;6.924;2023-04-03T13:22:06;4.43;;;1.30;;
43086;SDS011;28708;52.224;6.924;2023-04-03T13:24:47;4.80;;;1.23;;
43086;SDS011;28708;52.224;6.924;2023-04-03T13:27:15;5.93;;;1.20;;
43086;SDS011;28708;52.224;6.924;2023-04-03T13:29:42;5.27;;;1.37;;
43086;SDS011;28708;52.224;6.924;2023-04-03T13:32:13;4.33;;;1.40;;
43086;SDS011;28708;52.224;6.924;2023-04-03T13:34:46;4.83;;;1.20;;
43086;SDS011;28708;52.224;6.924;2023-04-03T13:37:23;6.50;;;1.47;;
43086;SDS011;28708;52.224;6.924;2023-04-03T13:42:26;3.70;;;1.17;;
43086;SDS011;28708;52.224;6.924;2023-04-03T13:47:49;3.90;;;1.30;;
43086;SDS011;28708;52.224;6.924;2023-04-03T13:50:24;6.17;;;1.40;;
43086;SDS011;28708;52.224;6.924;2023-04-03T13:53:00;5.50;;;1.40;;
43086;SDS011;28708;52.224;6.924;2023-04-03T13:55:33;5.13;;;1.17;;
43086;SDS011;28708;52.224;6.924;2023-04-03T14:00:31;4.43;;;1.17;;
43086;SDS011;28708;52.224;6.924;2023-04-03T14:03:20;6.27;;;1.47;;
43086;SDS011;28708;52.224;6.924;2023-04-03T14:05:57;7.00;;;1.40;;
43086;SDS011;28708;52.224;6.924;2023-04-03T14:08:25;7.33;;;1.63;;
43086;SDS011;28708;52.224;6.924;2023-04-03T14:10:50;3.80;;;1.20;;
43086;SDS011;28708;52.224;6.924;2023-04-03T14:13:17;6.30;;;1.23;;
43086;SDS011;28708;52.224;6.924;2023-04-03T14:15:45;5.67;;;2.03;;
43086;SDS011;28708;52.224;6.924;2023-04-03T14:18:14;6.80;;;1.33;;
43086;SDS011;28708;52.224;6.924;2023-04-03T14:20:42;5.87;;;1.87;;
43086;SDS011;28708;52.224;6.924;2023-04-03T14:23:08;5.10;;;1.43;;
43086;SDS011;28708;52.224;6.924;2023-04-03T14:25:34;3.17;;;1.13;;
43086;SDS011;28708;52.224;6.924;2023-04-03T14:28:00;6.30;;;2.60;;
43086;SDS011;28708;52.224;6.924;2023-04-03T14:30:31;6.67;;;1.80;;
43086;SDS011;28708;52.224;6.924;2023-04-03T14:32:58;4.43;;;1.33;;
43086;SDS011;28708;52.224;6.924;2023-04-03T14:35:25;5.30;;;1.37;;
43086;SDS011;28708;52.224;6.924;2023-04-03T14:37:52;12.03;;;5.70;;
43086;SDS011;28708;52.224;6.924;2023-04-03T14:40:20;3.40;;;0.83;;
43086;SDS011;28708;52.224;6.924;2023-04-03T14:42:50;5.73;;;1.70;;
43086;SDS011;28708;52.224;6.924;2023-04-03T14:45:17;3.97;;;1.67;;
43086;SDS011;28708;52.224;6.924;2023-04-03T14:47:53;3.80;;;1.20;;
43086;SDS011;28708;52.224;6.924;2023-04-03T14:50:24;4.67;;;1.40;;
43086;SDS011;28708;52.224;6.924;2023-04-03T14:52:52;6.10;;;1.70;;
43086;SDS011;28708;52.224;6.924;2023-04-03T14:55:21;8.30;;;2.67;;
43086;SDS011;28708;52.224;6.924;2023-04-03T14:57:48;9.60;;;5.10;;
43086;SDS011;28708;52.224;6.924;2023-04-03T15:00:15;3.37;;;1.27;;
43086;SDS011;28708;52.224;6.924;2023-04-03T15:02:42;2.90;;;1.07;;
43086;SDS011;28708;52.224;6.924;2023-04-03T15:05:10;4.70;;;2.03;;
43086;SDS011;28708;52.224;6.924;2023-04-03T15:07:40;3.87;;;1.13;;
43086;SDS011;28708;52.224;6.924;2023-04-03T15:12:45;5.67;;;1.10;;
43086;SDS011;28708;52.224;6.924;2023-04-03T15:15:12;6.00;;;1.37;;
43086;SDS011;28708;52.224;6.924;2023-04-03T15:17:38;5.13;;;1.60;;
43086;SDS011;28708;52.224;6.924;2023-04-03T15:20:10;2.60;;;0.80;;
43086;SDS011;28708;52.224;6.924;2023-04-03T15:22:41;5.60;;;1.13;;
43086;SDS011;28708;52.224;6.924;2023-04-03T15:25:08;3.73;;;0.80;;
43086;SDS011;28708;52.224;6.924;2023-04-03T15:27:34;5.83;;;1.20;;
43086;SDS011;28708;52.224;6.924;2023-04-03T15:30:00;5.23;;;1.43;;
43086;SDS011;28708;52.224;6.924;2023-04-03T15:32:26;4.83;;;1.20;;
43086;SDS011;28708;52.224;6.924;2023-04-03T15:34:52;3.43;;;1.20;;
43086;SDS011;28708;52.224;6.924;2023-04-03T15:37:19;4.17;;;1.30;;
43086;SDS011;28708;52.224;6.924;2023-04-03T15:39:44;5.13;;;1.47;;
43086;SDS011;28708;52.224;6.924;2023-04-03T15:42:10;5.13;;;1.50;;
43086;SDS011;28708;52.224;6.924;2023-04-03T15:44:37;5.80;;;1.20;;
43086;SDS011;28708;52.224;6.924;2023-04-03T15:47:03;4.77;;;1.63;;
43086;SDS011;28708;52.224;6.924;2023-04-03T15:49:29;3.90;;;1.13;;
43086;SDS011;28708;52.224;6.924;2023-04-03T15:51:57;4.83;;;1.20;;
43086;SDS011;28708;52.224;6.924;2023-04-03T15:54:23;5.67;;;1.27;;
43086;SDS011;28708;52.224;6.924;2023-04-03T15:56:50;4.43;;;1.27;;
43086;SDS011;28708;52.224;6.924;2023-04-03T15:59:16;4.50;;;1.33;;
43086;SDS011;28708;52.224;6.924;2023-04-03T16:01:42;4.50;;;1.17;;
43086;SDS011;28708;52.224;6.924;2023-04-03T16:04:08;9.03;;;1.20;;
43086;SDS011;28708;52.224;6.924;2023-04-03T16:06:35;4.57;;;1.20;;
43086;SDS011;28708;52.224;6.924;2023-04-03T16:09:02;3.80;;;1.17;;
43086;SDS011;28708;52.224;6.924;2023-04-03T16:11:28;7.07;;;2.03;;
43086;SDS011;28708;52.224;6.924;2023-04-03T16:13:55;3.37;;;1.10;;
43086;SDS011;28708;52.224;6.924;2023-04-03T16:16:21;2.53;;;0.87;;
43086;SDS011;28708;52.224;6.924;2023-04-03T16:18:48;3.83;;;1.13;;
43086;SDS011;28708;52.224;6.924;2023-04-03T16:21:15;3.43;;;1.20;;
43086;SDS011;28708;52.224;6.924;2023-04-03T16:23:42;2.63;;;1.10;;
43086;SDS011;28708;52.224;6.924;2023-04-03T16:26:08;5.93;;;1.20;;
43086;SDS011;28708;52.224;6.924;2023-04-03T16:28:34;4.93;;;1.20;;
43086;SDS011;28708;52.224;6.924;2023-04-03T16:31:00;3.20;;;1.20;;
43086;SDS011;28708;52.224;6.924;2023-04-03T16:33:26;3.83;;;1.20;;
43086;SDS011;28708;52.224;6.924;2023-04-03T16:35:52;6.13;;;2.07;;
43086;SDS011;28708;52.224;6.924;2023-04-03T16:38:18;3.83;;;1.20;;
43086;SDS011;28708;52.224;6.924;2023-04-03T16:40:45;3.80;;;1.30;;
43086;SDS011;28708;52.224;6.924;2023-04-03T16:43:11;4.63;;;1.43;;
43086;SDS011;28708;52.224;6.924;2023-04-03T16:45:36;5.07;;;1.40;;
43086;SDS011;28708;52.224;6.924;2023-04-03T16:48:02;3.07;;;1.17;;
43086;SDS011;28708;52.224;6.924;2023-04-03T16:50:28;3.90;;;1.30;;